createdAt,value
2023-10-24T00:04:36.344Z,97.84575
2023-10-24T00:09:48.453Z,97.60281
2023-10-24T00:15:00.746Z,97.4225
2023-10-24T00:20:12.884Z,96.81496
2023-10-24T00:25:25.108Z,97.52609
2023-10-24T00:30:41.174Z,98.16816
2023-10-24T00:35:53.237Z,97.64293
2023-10-24T00:41:05.326Z,97.24417
2023-10-24T00:46:21.209Z,97.29436
2023-10-24T00:51:33.330Z,96.42419
2023-10-24T00:56:45.297Z,96.9731
2023-10-24T01:01:57.498Z,96.43743
2023-10-24T01:07:09.643Z,98.42429
2023-10-24T01:12:21.715Z,98.38454
2023-10-24T01:17:33.956Z,97.74647
2023-10-24T01:22:45.921Z,99.73977
2023-10-24T01:27:58.098Z,99.76987
2023-10-24T01:33:10.105Z,99.2081
2023-10-24T01:38:22.299Z,100.0995
2023-10-24T01:43:34.476Z,100.232
2023-10-24T01:48:46.595Z,99.59237
2023-10-24T01:53:58.804Z,99.0567
2023-10-24T01:59:10.755Z,98.64591
2023-10-24T02:04:26.056Z,99.02094
2023-10-24T02:09:38.244Z,99.79593
2023-10-24T02:14:50.329Z,100.0079
2023-10-24T02:20:02.422Z,99.87502
2023-10-24T02:25:14.407Z,99.54213
2023-10-24T02:30:26.573Z,100.9873
2023-10-24T02:35:38.647Z,101.001
2023-10-24T02:40:50.634Z,100.4605
2023-10-24T02:46:02.848Z,100.764
2023-10-24T02:51:14.820Z,100.8066
2023-10-24T02:56:26.969Z,101.3322
2023-10-24T03:01:39.637Z,102.3823
2023-10-24T03:06:51.844Z,102.7589
2023-10-24T03:12:03.792Z,102.6244
2023-10-24T03:17:16.221Z,102.2413
2023-10-24T03:22:28.413Z,101.959
2023-10-24T03:27:40.536Z,102.1458
2023-10-24T03:32:52.735Z,101.7796
2023-10-24T03:38:04.844Z,102.551
2023-10-24T03:43:17.349Z,102.867
2023-10-24T03:48:29.550Z,102.673
2023-10-24T03:53:41.757Z,102.5128
2023-10-24T03:58:53.867Z,102.2827
2023-10-24T04:04:06.002Z,102.1607
2023-10-24T04:09:31.307Z,102.2795
2023-10-24T04:14:49.907Z,102.1269
2023-10-24T04:20:02.056Z,102.406
2023-10-24T04:25:14.177Z,101.9811
2023-10-24T04:30:26.303Z,101.7611
2023-10-24T04:35:39.490Z,101.2724
2023-10-24T04:40:51.642Z,100.9166
2023-10-24T04:46:04.160Z,100.8311
2023-10-24T04:51:18.294Z,102.3931
2023-10-24T04:56:30.191Z,102.1927
2023-10-24T05:01:42.485Z,101.9606
2023-10-24T05:06:54.635Z,101.8675
2023-10-24T05:12:06.727Z,101.4065
2023-10-24T05:17:18.736Z,101.3563
2023-10-24T05:22:30.832Z,101.6406
2023-10-24T05:27:42.941Z,102.3413
2023-10-24T05:32:55.085Z,102.5489
2023-10-24T05:38:07.052Z,102.4192
2023-10-24T05:43:19.681Z,102.1659
2023-10-24T05:48:31.832Z,101.7141
2023-10-24T05:53:43.906Z,101.3616
2023-10-24T05:58:57.854Z,101.0592
2023-10-24T06:04:09.959Z,100.9158
2023-10-24T06:09:21.973Z,100.8668
2023-10-24T06:14:33.925Z,101.2901
2023-10-24T06:19:46.092Z,102.0912
2023-10-24T06:24:58.294Z,102.0454
2023-10-24T06:30:10.388Z,101.9936
2023-10-24T06:35:22.501Z,102.0197
2023-10-24T06:40:34.703Z,102.4442
2023-10-24T06:45:47.046Z,102.7453
2023-10-24T06:50:59.126Z,103.3665
2023-10-24T06:56:11.209Z,103.4537
2023-10-24T07:01:23.232Z,103.1565
2023-10-24T07:06:35.243Z,103.3629
2023-10-24T07:11:48.421Z,103.0245
2023-10-24T07:17:00.514Z,103.3132
2023-10-24T07:22:12.652Z,103.4935
2023-10-24T07:27:24.606Z,103.3642
2023-10-24T07:32:36.646Z,103.4349
2023-10-24T07:37:49.348Z,103.8975
2023-10-24T07:43:01.471Z,104.1938
2023-10-24T07:48:13.519Z,104.3757
2023-10-24T07:53:25.514Z,104.6111
2023-10-24T07:58:37.793Z,104.5657
2023-10-24T08:03:49.935Z,104.7492
2023-10-24T08:09:04.968Z,104.597
2023-10-24T08:14:17.091Z,104.3915
2023-10-24T08:19:29.222Z,104.6926
2023-10-24T08:24:41.461Z,105.0111
2023-10-24T08:29:53.649Z,106.3134
2023-10-24T08:35:05.803Z,107.6237
2023-10-24T08:40:17.926Z,108.2337
2023-10-24T08:45:30.039Z,108.7958
2023-10-24T08:50:42.000Z,109.2616
2023-10-24T08:55:54.001Z,109.4942
2023-10-24T09:01:06.254Z,109.7251
2023-10-24T09:06:18.439Z,110.0656
2023-10-24T09:11:30.393Z,110.2142
2023-10-24T09:16:42.602Z,110.2925
2023-10-24T09:22:06.082Z,110.325
2023-10-24T09:27:19.487Z,110.2736
2023-10-24T09:32:31.638Z,110.0287
2023-10-24T09:37:43.867Z,110.0384
2023-10-24T09:42:55.981Z,109.9324
2023-10-24T09:48:07.969Z,109.6951
2023-10-24T09:53:20.114Z,109.6349
2023-10-24T09:58:32.303Z,109.6249
2023-10-24T10:03:44.554Z,109.4028
2023-10-24T10:08:56.710Z,109.2419
2023-10-24T10:14:08.704Z,109.0531
2023-10-24T10:19:20.722Z,108.7303
2023-10-24T10:24:32.702Z,108.4272
2023-10-24T10:29:44.858Z,108.0385
2023-10-24T10:34:57.117Z,106.9736
2023-10-24T10:40:09.357Z,106.0781
2023-10-24T10:45:21.333Z,105.2164
2023-10-24T10:50:33.417Z,104.4949
2023-10-24T10:55:45.531Z,102.5004
2023-10-24T11:00:57.522Z,101.9695
2023-10-24T11:06:09.666Z,101.5913
2023-10-24T11:11:21.713Z,101.2419
2023-10-24T11:16:38.772Z,101.3732
2023-10-24T11:21:51.807Z,101.4435
2023-10-24T11:27:03.942Z,101.3933
2023-10-24T11:32:16.071Z,101.3219
2023-10-24T11:37:28.130Z,101.3251
2023-10-24T11:42:40.242Z,101.2275
2023-10-24T11:47:52.420Z,101.003
2023-10-24T11:53:05.218Z,100.3594
2023-10-24T11:58:17.352Z,100.3855
2023-10-24T12:03:29.432Z,100.4606
2023-10-24T12:08:41.500Z,100.4594
2023-10-24T12:13:53.572Z,100.2522
2023-10-24T12:19:05.624Z,99.84502
2023-10-24T12:24:17.736Z,99.50491
2023-10-24T12:29:29.952Z,98.72231
2023-10-24T12:39:59.627Z,98.23927
2023-10-24T12:45:11.650Z,98.07785
2023-10-24T12:50:23.748Z,98.26942
2023-10-24T12:55:36.521Z,98.4698
2023-10-24T13:00:48.762Z,98.15379
2023-10-24T13:06:00.896Z,97.03828
2023-10-24T13:16:31.184Z,96.52908
2023-10-24T13:21:43.213Z,96.39456
2023-10-24T13:26:55.201Z,95.65249
2023-10-24T13:32:07.324Z,95.10275
2023-10-24T13:37:19.372Z,95.13286
2023-10-24T13:42:31.407Z,95.62555
2023-10-24T13:47:43.478Z,96.47683
2023-10-24T13:52:55.611Z,96.6262
2023-10-24T13:58:07.659Z,96.58524
2023-10-24T14:08:37.631Z,97.00123
2023-10-24T14:13:50.011Z,96.50371
2023-10-24T14:19:02.009Z,96.40614
2023-10-24T14:24:14.032Z,95.88091
2023-10-24T14:29:26.102Z,95.68415
2023-10-24T14:34:38.365Z,94.76499
2023-10-24T14:39:50.502Z,95.29261
2023-10-24T14:45:02.608Z,95.76402
2023-10-24T14:50:14.746Z,95.92705
2023-10-24T14:55:26.890Z,95.42029
2023-10-24T15:00:39.168Z,95.62467
2023-10-24T15:05:51.244Z,94.88301
2023-10-24T15:11:03.504Z,95.38816
2023-10-24T15:16:15.553Z,95.24642
2023-10-24T15:21:27.560Z,95.33517
2023-10-24T15:26:41.330Z,94.69711
2023-10-24T15:31:53.367Z,94.83765
2023-10-24T15:37:05.554Z,94.49272
2023-10-24T15:42:18.012Z,94.7244
2023-10-24T15:47:30.174Z,93.81007
2023-10-24T15:52:42.226Z,93.78236
2023-10-24T15:57:57.680Z,94.09916
2023-10-24T16:03:11.087Z,93.95701
2023-10-24T16:08:23.237Z,93.81444
2023-10-24T16:13:35.403Z,94.37979
2023-10-24T16:18:47.502Z,94.06496
2023-10-24T16:24:03.710Z,93.55016
2023-10-24T16:29:16.212Z,93.68988
2023-10-24T16:34:28.247Z,93.80671
2023-10-24T16:39:40.200Z,95.40364
2023-10-24T16:44:52.202Z,95.72646
2023-10-24T16:50:04.194Z,96.88089
2023-10-24T16:55:16.177Z,97.57755
2023-10-24T17:00:28.135Z,98.89381
2023-10-24T17:05:40.242Z,99.63184
2023-10-24T17:10:52.376Z,100.7682
2023-10-24T17:16:05.205Z,99.95586
2023-10-24T17:21:17.464Z,98.68735
2023-10-24T17:26:29.576Z,98.15729
2023-10-24T17:31:41.797Z,98.55962
2023-10-24T17:36:53.947Z,98.54073
2023-10-24T17:42:05.921Z,97.90988
2023-10-24T17:47:18.177Z,97.39186
2023-10-24T17:52:30.272Z,96.86461
2023-10-24T17:57:42.365Z,96.70678
2023-10-24T18:02:54.522Z,96.23013
2023-10-24T18:08:06.601Z,96.22649
2023-10-24T18:13:18.640Z,97.24681
2023-10-24T18:18:33.241Z,99.76731
2023-10-24T18:23:46.044Z,98.98267
2023-10-24T18:28:58.177Z,98.83289
2023-10-24T18:34:10.196Z,98.93649
2023-10-24T18:39:22.376Z,99.15292
2023-10-24T18:39:34.292Z,99.18343
2023-10-24T18:44:46.442Z,99.05814
2023-10-24T18:49:58.647Z,99.45767
2023-10-24T18:55:10.777Z,99.59942
2023-10-24T19:00:22.937Z,99.21473
2023-10-24T19:05:35.052Z,99.97284
2023-10-24T19:10:47.159Z,99.58494
2023-10-24T19:16:00.274Z,99.11311
2023-10-24T19:21:12.999Z,99.27011
2023-10-24T19:26:24.969Z,99.84351
2023-10-24T19:31:37.137Z,100.533
2023-10-24T19:36:49.143Z,100.1744
2023-10-24T19:42:01.138Z,100.1238
2023-10-24T19:47:13.168Z,99.47205
2023-10-24T19:52:25.138Z,98.97293
2023-10-24T19:57:37.570Z,99.51462
2023-10-24T20:02:49.806Z,100.7855
2023-10-24T20:08:02.126Z,101.063
2023-10-24T20:13:14.157Z,101.0047
2023-10-24T20:18:26.597Z,100.5819
2023-10-24T20:23:38.819Z,100.3956
2023-10-24T20:28:50.845Z,100.1924
2023-10-24T20:34:02.875Z,99.87315
2023-10-24T20:39:15.115Z,99.78439
2023-10-24T20:44:27.239Z,100.2265
2023-10-24T20:49:40.065Z,100.7634
2023-10-24T20:54:55.958Z,100.7842
2023-10-24T21:00:08.128Z,100.5091
2023-10-24T21:05:20.754Z,100.5425
2023-10-24T21:10:36.158Z,103.1521
2023-10-24T21:15:48.944Z,103.8524
2023-10-24T21:21:01.049Z,104.4323
2023-10-24T21:26:13.146Z,104.0873
2023-10-24T21:31:25.407Z,104.5053
2023-10-24T21:36:37.489Z,104.1985
2023-10-24T21:41:49.459Z,104.7804
2023-10-24T21:47:01.747Z,105.2775
2023-10-24T21:52:13.944Z,105.2819
2023-10-24T21:57:26.051Z,105.2438
2023-10-24T22:02:38.065Z,104.9402
2023-10-24T22:07:50.102Z,104.8623
2023-10-24T22:13:02.100Z,104.8242
2023-10-24T22:18:14.146Z,105.3064
2023-10-24T22:23:28.041Z,105.1004
2023-10-24T22:28:40.006Z,105.3305
2023-10-24T22:33:52.162Z,105.7148
2023-10-24T22:39:08.859Z,105.7645
2023-10-24T22:44:21.154Z,105.8027
2023-10-24T22:49:33.170Z,105.7477
2023-10-24T22:54:45.335Z,106.1063
2023-10-24T22:59:57.438Z,106.4616
2023-10-24T23:05:09.428Z,106.6186
2023-10-24T23:10:21.611Z,106.7146
2023-10-24T23:15:33.930Z,106.6222
2023-10-24T23:20:46.206Z,106.4748
2023-10-24T23:25:58.169Z,106.0178
2023-10-24T23:31:10.258Z,105.9604
2023-10-24T23:36:23.024Z,105.4419
2023-10-24T23:41:35.111Z,105.2564
2023-10-24T23:46:47.296Z,105.3122
2023-10-24T23:51:59.532Z,105.4684
2023-10-24T23:57:11.531Z,105.5081
